Time;durP1;ratioP1;P1;durP2;ratioP2;P2;SDS_P1;SDS_P2;PMS_P1;PMS_P2;Temp;Humidity;BMP_temperature;BMP_pressure;BME280_temperature;BME280_humidity;BME280_pressure;Samples;Min_cycle;Max_cycle;Signal;HPM_P1;HPM_P2
2022/02/11 00:05:26;;;;;;;;;;;;;;;5.66;100.00;99911.16;5076147;28;19966;-84
2022/02/11 00:07:56;;;;;;;;;;;;;;;5.81;100.00;99913.00;5059295;28;20267;-84
2022/02/11 00:10:24;;;;;;;;;;;;;;;5.50;100.00;99920.41;5094095;28;19960;-84
2022/02/11 00:12:54;;;;;;;;;;;;;;;5.58;100.00;99927.69;5060563;28;19969;-84
2022/02/11 00:17:50;;;;;;;;;;;;;;;5.49;100.00;99949.31;5042662;28;20447;-84
2022/02/11 00:20:18;;;;;;;;;;;;;;;5.43;100.00;99950.78;5076142;28;19924;-84
2022/02/11 00:22:45;;;;;;;;;;;;;;;5.66;100.00;99961.06;5076044;28;19931;-84
2022/02/11 00:25:13;;;;;;;;;;;;;;;5.81;100.00;99951.81;5058607;28;20299;-84
2022/02/11 00:33:08;;;;;;;;;;;;;;;5.66;100.00;99966.63;5059078;28;19931;-85
2022/02/11 00:35:48;;;;;;;;;;;;;;;5.85;100.00;99985.97;5058648;28;20383;-84
2022/02/11 00:38:21;;;;;;;;;;;;;;;5.93;100.00;99976.63;5074853;28;20087;-84
2022/02/11 01:04:48;;;;;;;;;;;;;;;6.32;100.00;100006.63;5093563;28;19973;-84
2022/02/11 01:07:15;;;;;;;;;;;;;;;6.45;100.00;100004.44;5058598;28;19930;-85
2022/02/11 01:09:43;;;;;;;;;;;;;;;6.71;100.00;99998.88;5079513;28;20027;-84
2022/02/11 01:12:11;;;;;;;;;;;;;;;6.13;100.00;99992.03;5062752;28;19982;-84
2022/02/11 01:14:46;;;;;;;;;;;;;;;5.97;100.00;100002.47;5046254;28;20367;-84
2022/02/11 01:17:33;;;;;;;;;;;;;;;5.84;100.00;100009.34;5078872;28;19924;-85
2022/02/11 01:30:41;;;;;;;;;;;;;;;6.58;100.00;100023.28;5078705;28;19924;-84
2022/02/11 01:35:51;;;;;;;;;;;;;;;6.01;100.00;100023.56;5096816;28;19969;-84
2022/02/11 01:52:24;;;;;;;;;;;;;;;5.91;100.00;100067.75;4997997;28;19925;-84
2022/02/11 01:58:13;;;;;;;;;;;;;;;5.60;100.00;100080.59;5014404;28;19926;-84
2022/02/11 02:11:37;;;;;;;;;;;;;;;5.67;100.00;100095.75;5014625;28;19925;-85
2022/02/11 02:22:44;;;;;;;;;;;;;;;5.30;100.00;100096.19;4978377;28;19933;-85
2022/02/11 02:25:21;;;;;;;;;;;;;;;5.13;100.00;100107.72;5001218;28;20420;-85
2022/02/11 02:33:25;;;;;;;;;;;;;;;5.15;100.00;100112.91;5000779;28;20391;-84
2022/02/11 02:38:45;;;;;;;;;;;;;;;5.81;100.00;100107.94;5016817;28;19925;-84
2022/02/11 02:58:26;;;;;;;;;;;;;;;5.03;100.00;100127.66;5082041;28;20027;-85
2022/02/11 03:01:32;;;;;;;;;;;;;;;4.79;100.00;100130.66;5079010;28;19923;-86
2022/02/11 03:34:59;;;;;;;;;;;;;;;4.89;100.00;100141.19;4979885;28;19925;-86
2022/02/11 03:49:13;;;;;;;;;;;;;;;4.21;100.00;100170.28;4979553;28;19926;-85
2022/02/11 03:52:44;;;;;;;;;;;;;;;4.37;100.00;100168.38;5039565;28;19924;-86
2022/02/11 04:55:38;;;;;;;;;;;;;;;3.36;100.00;100268.53;5061951;28;19974;-85
2022/02/11 05:00:56;;;;;;;;;;;;;;;3.34;100.00;100281.88;5078208;28;19924;-85
2022/02/11 05:03:38;;;;;;;;;;;;;;;3.19;100.00;100288.91;5095402;28;19932;-85
2022/02/11 05:06:09;;;;;;;;;;;;;;;2.98;100.00;100279.09;5061799;28;20019;-85
2022/02/11 05:08:37;;;;;;;;;;;;;;;2.91;100.00;100296.25;5069846;28;19960;-85
2022/02/11 05:11:09;;;;;;;;;;;;;;;2.84;100.00;100289.66;5074862;28;19925;-85
2022/02/11 05:13:37;;;;;;;;;;;;;;;2.94;100.00;100283.72;5025238;28;19987;-85
2022/02/11 05:16:04;;;;;;;;;;;;;;;2.65;100.00;100289.41;5041661;28;19932;-85
2022/02/11 05:18:32;;;;;;;;;;;;;;;2.65;100.00;100292.19;5074724;28;19983;-84
2022/02/11 05:20:59;;;;;;;;;;;;;;;2.34;100.00;100297.34;5058750;28;19948;-85
2022/02/11 05:23:28;;;;;;;;;;;;;;;2.10;100.00;100305.53;5059283;28;19924;-84
2022/02/11 05:25:56;;;;;;;;;;;;;;;1.62;100.00;100301.34;5075765;28;19960;-84
2022/02/11 05:28:24;;;;;;;;;;;;;;;1.47;100.00;100299.19;5075426;28;20011;-84
2022/02/11 05:30:51;;;;;;;;;;;;;;;1.73;100.00;100299.84;5058809;28;19924;-84
2022/02/11 05:33:20;;;;;;;;;;;;;;;1.75;100.00;100291.22;5058945;28;19925;-85
2022/02/11 05:36:03;;;;;;;;;;;;;;;2.21;100.00;100292.94;5058871;28;19924;-85
2022/02/11 05:39:01;;;;;;;;;;;;;;;2.09;100.00;100296.44;5075036;28;20436;-85
2022/02/11 05:41:31;;;;;;;;;;;;;;;2.36;100.00;100295.06;5076057;28;20070;-85
2022/02/11 05:44:01;;;;;;;;;;;;;;;2.48;100.00;100306.16;5058820;28;19963;-85
2022/02/11 05:46:29;;;;;;;;;;;;;;;2.21;100.00;100303.97;5075043;28;20023;-85
2022/02/11 05:48:58;;;;;;;;;;;;;;;2.17;100.00;100314.88;5075086;28;19967;-85
2022/02/11 05:51:25;;;;;;;;;;;;;;;1.73;100.00;100319.13;5058599;28;19931;-84
2022/02/11 05:53:52;;;;;;;;;;;;;;;1.51;100.00;100330.47;5057747;28;19959;-85
2022/02/11 05:56:19;;;;;;;;;;;;;;;2.00;100.00;100333.53;5058707;28;19925;-85
2022/02/11 05:58:47;;;;;;;;;;;;;;;2.25;100.00;100343.53;5074647;28;20380;-85
2022/02/11 06:01:14;;;;;;;;;;;;;;;2.47;100.00;100348.69;5058735;28;19947;-85
2022/02/11 06:03:41;;;;;;;;;;;;;;;2.62;100.00;100348.84;5041722;28;20411;-85
2022/02/11 06:06:09;;;;;;;;;;;;;;;2.47;100.00;100346.72;5058713;28;19925;-85
2022/02/11 06:08:36;;;;;;;;;;;;;;;2.26;100.00;100347.91;5025958;28;19924;-85
2022/02/11 06:11:05;;;;;;;;;;;;;;;2.43;100.00;100359.59;5058810;28;19925;-85
2022/02/11 06:13:33;;;;;;;;;;;;;;;1.63;100.00;100369.13;5091266;28;19925;-85
2022/02/11 06:16:01;;;;;;;;;;;;;;;1.46;100.00;100371.97;5041668;28;19931;-85
2022/02/11 06:18:31;;;;;;;;;;;;;;;1.78;100.00;100382.31;5075791;28;19924;-85
2022/02/11 06:20:58;;;;;;;;;;;;;;;1.92;100.00;100385.59;5058090;28;20367;-85
2022/02/11 06:23:26;;;;;;;;;;;;;;;1.80;100.00;100382.78;5075970;28;19924;-85
2022/02/11 06:25:53;;;;;;;;;;;;;;;2.00;100.00;100386.69;5057615;28;19931;-85
2022/02/11 06:28:21;;;;;;;;;;;;;;;2.45;100.00;100404.22;5057770;28;19928;-85
2022/02/11 06:30:48;;;;;;;;;;;;;;;2.58;100.00;100386.53;5074520;28;19924;-85
2022/02/11 06:33:15;;;;;;;;;;;;;;;2.66;100.00;100393.13;5041404;28;19925;-85
2022/02/11 06:35:44;;;;;;;;;;;;;;;3.01;100.00;100386.94;5058581;28;19932;-85
2022/02/11 06:38:12;;;;;;;;;;;;;;;3.16;100.00;100396.50;5075400;28;20337;-85
2022/02/11 06:40:43;;;;;;;;;;;;;;;3.02;100.00;100396.81;5058189;28;20310;-85
2022/02/11 06:43:14;;;;;;;;;;;;;;;3.07;100.00;100398.56;5057710;28;20277;-85
2022/02/11 06:45:41;;;;;;;;;;;;;;;3.20;100.00;100397.41;5058477;28;19925;-85
2022/02/11 06:48:09;;;;;;;;;;;;;;;3.33;100.00;100408.13;5075176;28;19924;-85
2022/02/11 06:50:37;;;;;;;;;;;;;;;3.30;100.00;100405.28;5075437;28;19924;-85
2022/02/11 06:53:04;;;;;;;;;;;;;;;3.41;100.00;100414.72;5040586;28;19959;-85
2022/02/11 06:55:33;;;;;;;;;;;;;;;3.28;100.00;100411.16;5071194;28;20417;-85
2022/02/11 06:58:00;;;;;;;;;;;;;;;3.12;100.00;100414.91;5060113;28;19931;-85
2022/02/11 07:00:28;;;;;;;;;;;;;;;2.98;100.00;100417.16;5094046;28;20054;-85
2022/02/11 07:02:55;;;;;;;;;;;;;;;3.01;100.00;100428.34;5077292;28;19924;-85
2022/02/11 07:05:25;;;;;;;;;;;;;;;3.33;100.00;100421.97;5093221;28;19931;-86
2022/02/11 07:07:56;;;;;;;;;;;;;;;3.50;100.00;100438.34;5074458;28;19924;-87
2022/02/11 07:10:23;;;;;;;;;;;;;;;3.45;100.00;100443.28;5040966;28;19928;-88
2022/02/11 07:12:54;;;;;;;;;;;;;;;3.65;100.00;100450.66;5041008;28;19949;-87
2022/02/11 07:15:21;;;;;;;;;;;;;;;3.43;100.00;100445.59;5045001;28;20303;-85
2022/02/11 07:17:49;;;;;;;;;;;;;;;3.36;100.00;100456.41;5076428;28;19946;-86
2022/02/11 07:20:17;;;;;;;;;;;;;;;3.19;100.00;100457.41;5060192;28;19924;-86
2022/02/11 07:22:44;;;;;;;;;;;;;;;3.22;100.00;100462.25;5091895;28;19924;-86
2022/02/11 07:25:12;;;;;;;;;;;;;;;3.15;100.00;100469.47;5069824;28;19928;-86
2022/02/11 07:27:40;;;;;;;;;;;;;;;3.17;100.00;100465.22;5043407;28;19924;-85
2022/02/11 07:30:26;;;;;;;;;;;;;;;3.34;100.00;100465.03;5062061;28;19924;-86
2022/02/11 07:32:56;;;;;;;;;;;;;;;3.30;100.00;100468.81;5089634;28;19931;-87
2022/02/11 07:35:33;;;;;;;;;;;;;;;3.39;100.00;100462.03;5053504;28;19924;-88
2022/02/11 07:38:07;;;;;;;;;;;;;;;3.56;100.00;100470.13;5069918;28;19928;-87
2022/02/11 07:40:40;;;;;;;;;;;;;;;3.53;100.00;100472.75;5053264;28;20008;-87
2022/02/11 07:43:12;;;;;;;;;;;;;;;3.36;100.00;100479.28;5052066;28;19925;-87
2022/02/11 07:46:06;;;;;;;;;;;;;;;3.26;100.00;100484.44;5047868;28;20006;-87
2022/02/11 07:48:36;;;;;;;;;;;;;;;3.62;100.00;100493.63;5062005;28;19971;-88
2022/02/11 07:51:09;;;;;;;;;;;;;;;3.70;100.00;100494.69;5029370;28;19963;-87
2022/02/11 07:53:45;;;;;;;;;;;;;;;3.49;100.00;100488.44;5090589;28;19928;-87
2022/02/11 07:56:15;;;;;;;;;;;;;;;3.25;100.00;100491.13;5069707;28;19928;-87
2022/02/11 07:58:43;;;;;;;;;;;;;;;3.05;100.00;100487.25;5085677;28;19981;-87
2022/02/11 08:01:14;;;;;;;;;;;;;;;2.89;100.00;100496.53;5080282;28;19924;-80
2022/02/11 08:03:41;;;;;;;;;;;;;;;3.09;100.00;100501.22;5091698;28;19931;-89
2022/02/11 08:06:09;;;;;;;;;;;;;;;3.05;100.00;100501.06;5073878;28;19924;-88
2022/02/11 08:08:37;;;;;;;;;;;;;;;3.09;100.00;100506.75;5056853;28;20424;-85
2022/02/11 08:11:05;;;;;;;;;;;;;;;3.46;100.00;100500.97;5087814;28;19924;-84
2022/02/11 08:13:33;;;;;;;;;;;;;;;3.47;100.00;100512.81;5056046;28;20393;-84
2022/02/11 08:16:00;;;;;;;;;;;;;;;3.85;100.00;100502.28;5073754;28;19924;-84
2022/02/11 08:18:27;;;;;;;;;;;;;;;3.88;100.00;100509.91;5055863;28;20376;-85
2022/02/11 08:21:08;;;;;;;;;;;;;;;4.13;100.00;100519.84;5087680;28;19975;-83
2022/02/11 08:23:35;;;;;;;;;;;;;;;3.98;100.00;100515.00;5091511;28;19948;-87
2022/02/11 08:26:05;;;;;;;;;;;;;;;4.18;100.00;100514.06;5078633;28;20302;-89
2022/02/11 08:28:34;;;;;;;;;;;;;;;4.55;100.00;100515.66;5076383;28;19924;-89
2022/02/11 08:31:02;;;;;;;;;;;;;;;4.17;100.00;100509.69;5076408;28;19924;-88
2022/02/11 08:33:32;;;;;;;;;;;;;;;4.14;100.00;100512.31;5074057;28;19931;-82
2022/02/11 08:36:00;;;;;;;;;;;;;;;4.45;100.00;100507.84;5052982;28;19948;-82
2022/02/11 08:38:28;;;;;;;;;;;;;;;4.63;100.00;100508.38;5069838;28;19925;-81
2022/02/11 08:40:55;;;;;;;;;;;;;;;4.51;100.00;100513.94;5039046;28;19924;-81
2022/02/11 08:43:22;;;;;;;;;;;;;;;4.53;100.00;100520.72;5059173;28;19925;-82
2022/02/11 08:45:49;;;;;;;;;;;;;;;4.45;100.00;100521.66;5080865;28;19963;-81
2022/02/11 08:48:17;;;;;;;;;;;;;;;4.42;100.00;100507.72;5088190;28;19928;-82
2022/02/11 08:50:44;;;;;;;;;;;;;;;4.28;100.00;100521.91;5090031;28;20001;-82
2022/02/11 08:53:33;;;;;;;;;;;;;;;4.28;100.00;100519.16;5085549;28;19932;-81
2022/02/11 08:56:05;;;;;;;;;;;;;;;4.17;100.00;100520.75;5040656;28;19924;-83
2022/02/11 08:58:33;;;;;;;;;;;;;;;4.21;100.00;100510.59;5051047;28;19935;-83
2022/02/11 09:01:00;;;;;;;;;;;;;;;4.29;100.00;100529.03;5066909;28;20295;-84
2022/02/11 09:03:29;;;;;;;;;;;;;;;4.66;100.00;100511.25;5055134;28;19928;-83
2022/02/11 09:05:56;;;;;;;;;;;;;;;4.94;100.00;100506.53;5049389;28;20307;-84
2022/02/11 09:08:24;;;;;;;;;;;;;;;4.79;100.00;100498.16;5085483;28;19939;-85
2022/02/11 09:10:54;;;;;;;;;;;;;;;4.58;100.00;100503.88;5073352;28;20066;-82
2022/02/11 09:13:23;;;;;;;;;;;;;;;4.94;100.00;100509.31;5069589;28;19924;-80
2022/02/11 09:15:50;;;;;;;;;;;;;;;5.23;100.00;100514.50;5085856;28;19931;-83
2022/02/11 09:18:17;;;;;;;;;;;;;;;5.51;100.00;100518.06;5086244;28;20348;-81
2022/02/11 09:20:44;;;;;;;;;;;;;;;5.69;100.00;100506.63;5070629;28;19924;-81
2022/02/11 09:23:12;;;;;;;;;;;;;;;5.82;100.00;100514.53;5088331;28;19985;-85
2022/02/11 09:25:46;;;;;;;;;;;;;;;5.97;100.00;100504.63;5090701;28;19931;-86
2022/02/11 09:28:13;;;;;;;;;;;;;;;6.11;100.00;100519.66;5089318;28;19962;-82
2022/02/11 09:30:41;;;;;;;;;;;;;;;6.29;100.00;100511.75;5093240;28;20018;-82
2022/02/11 09:34:48;;;;;;;;;;;;;;;6.33;100.00;100505.09;5108640;27;20325;-83
2022/02/11 09:37:21;;;;;;;;;;;;;;;6.56;100.00;100508.00;5058447;28;20389;-83
2022/02/11 09:39:51;;;;;;;;;;;;;;;6.54;100.00;100502.81;5092017;28;19924;-83
2022/02/11 09:42:23;;;;;;;;;;;;;;;6.62;100.00;100503.81;5109138;28;19928;-83
2022/02/11 09:44:53;;;;;;;;;;;;;;;6.89;100.00;100502.81;5108119;28;19924;-85
2022/02/11 09:47:21;;;;;;;;;;;;;;;6.98;100.00;100509.75;5108782;28;19931;-82
2022/02/11 09:49:48;;;;;;;;;;;;;;;6.75;100.00;100506.09;5090966;28;20401;-86
2022/02/11 09:52:15;;;;;;;;;;;;;;;6.91;100.00;100519.91;5108441;28;19943;-86
2022/02/11 09:54:45;;;;;;;;;;;;;;;6.91;100.00;100522.69;5087598;28;19932;-81
2022/02/11 09:57:15;;;;;;;;;;;;;;;6.81;100.00;100513.00;5053647;28;20337;-82
2022/02/11 09:59:42;;;;;;;;;;;;;;;6.81;100.00;100512.16;5053304;28;19950;-82
2022/02/11 10:02:15;;;;;;;;;;;;;;;6.89;100.00;100525.06;5092406;28;20379;-89
2022/02/11 10:04:55;;;;;;;;;;;;;;;6.80;100.00;100507.78;5067661;28;19916;-85
2022/02/11 10:07:23;;;;;;;;;;;;;;;5.73;100.00;100510.28;5097307;28;20284;-82
2022/02/11 10:09:52;;;;;;;;;;;;;;;5.70;100.00;100522.09;5086001;28;19956;-81
2022/02/11 10:12:23;;;;;;;;;;;;;;;5.73;100.00;100530.53;5087381;28;19932;-82
2022/02/11 10:14:51;;;;;;;;;;;;;;;5.57;100.00;100521.38;5053093;28;19982;-82
2022/02/11 10:17:19;;;;;;;;;;;;;;;5.49;100.00;100523.16;5087870;28;20463;-88
2022/02/11 10:19:50;;;;;;;;;;;;;;;5.76;100.00;100532.59;5108112;28;19931;-88
2022/02/11 10:22:24;;;;;;;;;;;;;;;5.74;100.00;100534.13;5089120;28;19935;-86
2022/02/11 10:24:52;;;;;;;;;;;;;;;5.79;100.00;100531.06;5056453;28;19969;-84
2022/02/11 10:27:27;;;;;;;;;;;;;;;5.94;100.00;100538.66;5073296;28;19924;-87
2022/02/11 10:30:05;;;;;;;;;;;;;;;5.84;100.00;100530.84;5072815;28;19924;-85
2022/02/11 10:32:37;;;;;;;;;;;;;;;6.09;100.00;100535.84;5065680;28;19928;-85
2022/02/11 10:35:06;;;;;;;;;;;;;;;6.15;100.00;100539.19;5057083;28;19928;-88
2022/02/11 10:37:56;;;;;;;;;;;;;;;6.31;100.00;100537.19;5065420;28;19924;-86
2022/02/11 10:40:31;;;;;;;;;;;;;;;6.79;100.00;100542.28;5079680;28;20478;-88
2022/02/11 10:43:00;;;;;;;;;;;;;;;7.11;100.00;100546.56;5098880;28;20019;-88
2022/02/11 10:45:40;;;;;;;;;;;;;;;7.18;100.00;100549.47;5071752;28;19951;-88
2022/02/11 10:48:17;;;;;;;;;;;;;;;7.47;100.00;100548.13;5059722;28;20121;-87
2022/02/11 10:50:55;;;;;;;;;;;;;;;7.53;100.00;100541.88;5036711;28;20000;-90
2022/02/11 10:53:31;;;;;;;;;;;;;;;7.80;100.00;100549.13;5032787;28;20323;-87
2022/02/11 10:56:02;;;;;;;;;;;;;;;7.36;100.00;100536.78;5070625;28;20334;-88
2022/02/11 10:58:32;;;;;;;;;;;;;;;7.80;100.00;100540.78;5043276;28;19931;-82
2022/02/11 11:01:05;;;;;;;;;;;;;;;8.01;100.00;100549.50;5072913;28;20293;-83
2022/02/11 11:03:35;;;;;;;;;;;;;;;8.09;100.00;100540.13;5039957;28;19924;-82
2022/02/11 11:06:13;;;;;;;;;;;;;;;8.22;100.00;100538.81;5044550;28;19978;-82
2022/02/11 11:08:42;;;;;;;;;;;;;;;8.00;100.00;100542.34;5058754;28;19924;-82
2022/02/11 11:11:14;;;;;;;;;;;;;;;8.13;100.00;100529.88;5091411;28;19993;-82
2022/02/11 11:13:43;;;;;;;;;;;;;;;8.04;100.00;100531.28;5036000;28;19924;-90
2022/02/11 11:16:11;;;;;;;;;;;;;;;8.05;100.00;100541.25;5057486;28;19934;-90
2022/02/11 11:18:42;;;;;;;;;;;;;;;8.18;100.00;100535.09;5044083;28;19991;-87
2022/02/11 11:21:12;;;;;;;;;;;;;;;8.17;100.00;100533.50;5043033;28;19924;-88
2022/02/11 11:23:54;;;;;;;;;;;;;;;8.21;100.00;100539.94;5035674;28;19928;-89
2022/02/11 11:26:36;;;;;;;;;;;;;;;8.23;100.00;100529.25;5053493;28;20050;-89
2022/02/11 11:29:15;;;;;;;;;;;;;;;8.19;100.00;100528.38;5042246;28;19924;-90
2022/02/11 11:31:58;;;;;;;;;;;;;;;8.24;100.00;100530.06;5042105;28;20403;-89
2022/02/11 11:34:39;;;;;;;;;;;;;;;8.55;100.00;100524.19;5057937;28;19924;-90
2022/02/11 11:37:14;;;;;;;;;;;;;;;8.29;100.00;100526.97;5064520;28;20007;-83
2022/02/11 11:39:44;;;;;;;;;;;;;;;8.40;100.00;100523.19;5042244;28;19924;-83
2022/02/11 11:42:13;;;;;;;;;;;;;;;8.17;100.00;100518.78;5074553;28;19971;-83
2022/02/11 11:44:47;;;;;;;;;;;;;;;7.99;100.00;100512.91;5091187;28;20015;-82
2022/02/11 11:47:30;;;;;;;;;;;;;;;8.23;100.00;100512.56;5092160;28;20466;-81
2022/02/11 11:49:59;;;;;;;;;;;;;;;8.31;100.00;100510.69;5092686;28;19928;-84
2022/02/11 11:52:48;;;;;;;;;;;;;;;8.14;100.00;100509.19;5038077;28;19931;-83
2022/02/11 11:55:15;;;;;;;;;;;;;;;8.19;100.00;100514.47;5004970;28;19943;-83
2022/02/11 11:57:45;;;;;;;;;;;;;;;8.09;100.00;100506.72;5004788;28;20010;-84
2022/02/11 12:00:32;;;;;;;;;;;;;;;8.33;100.00;100497.97;5038988;28;19931;-89
2022/02/11 12:03:00;;;;;;;;;;;;;;;8.32;100.00;100499.16;5072415;28;20363;-85
2022/02/11 12:05:45;;;;;;;;;;;;;;;8.53;100.00;100493.09;5054673;28;20007;-82
2022/02/11 12:08:15;;;;;;;;;;;;;;;8.78;100.00;100495.06;5054847;28;19931;-82
2022/02/11 12:10:44;;;;;;;;;;;;;;;8.86;100.00;100482.84;5037953;28;20559;-82
2022/02/11 12:13:12;;;;;;;;;;;;;;;8.57;100.00;100489.19;5057349;28;19970;-82
2022/02/11 12:15:42;;;;;;;;;;;;;;;8.74;100.00;100480.28;5073985;28;19924;-82
2022/02/11 12:18:09;;;;;;;;;;;;;;;8.92;100.00;100478.53;5084628;28;19924;-82
2022/02/11 12:20:38;;;;;;;;;;;;;;;8.60;100.00;100468.94;5071376;28;20011;-85
2022/02/11 12:29:31;;;;;;;;;;;;;;;9.01;100.00;100459.53;5048854;28;19932;-86
2022/02/11 12:32:01;;;;;;;;;;;;;;;9.26;100.00;100450.66;5074374;28;20364;-85
2022/02/11 12:34:28;;;;;;;;;;;;;;;9.36;100.00;100452.78;5037575;28;19925;-84
2022/02/11 12:37:07;;;;;;;;;;;;;;;9.23;100.00;100448.63;5053471;28;19935;-89
2022/02/11 12:39:34;;;;;;;;;;;;;;;9.59;100.00;100439.47;5020142;28;20383;-88
2022/02/11 12:42:06;;;;;;;;;;;;;;;9.44;100.00;100432.13;5032370;28;20529;-89
2022/02/11 12:44:34;;;;;;;;;;;;;;;9.31;100.00;100425.22;5037660;28;20027;-89
2022/02/11 12:47:02;;;;;;;;;;;;;;;9.65;100.00;100421.19;5070977;28;19928;-89
2022/02/11 12:49:34;;;;;;;;;;;;;;;9.40;100.00;100428.50;5053418;28;20375;-89
2022/02/11 12:52:01;;;;;;;;;;;;;;;9.33;100.00;100418.06;5037198;28;19925;-88
2022/02/11 12:54:31;;;;;;;;;;;;;;;8.71;100.00;100416.94;5037239;28;19974;-91
2022/02/11 12:57:04;;;;;;;;;;;;;;;9.50;100.00;100409.06;5027926;28;20026;-87
2022/02/11 12:59:47;;;;;;;;;;;;;;;9.11;100.00;100411.47;5058392;28;19974;-87
2022/02/11 13:02:24;;;;;;;;;;;;;;;9.28;100.00;100406.47;5070915;28;19925;-90
2022/02/11 13:05:05;;;;;;;;;;;;;;;9.39;100.00;100404.59;5023533;28;19924;-88
2022/02/11 13:07:45;;;;;;;;;;;;;;;8.82;100.00;100395.59;5045116;28;19928;-89
2022/02/11 13:10:20;;;;;;;;;;;;;;;9.36;100.00;100399.78;5008039;28;19975;-89
2022/02/11 13:12:53;;;;;;;;;;;;;;;9.61;100.00;100403.59;5055822;28;20364;-90
2022/02/11 13:15:27;;;;;;;;;;;;;;;9.05;100.00;100401.03;5039815;28;19924;-89
2022/02/11 13:17:56;;;;;;;;;;;;;;;9.01;100.00;100403.78;5040132;28;19946;-89
2022/02/11 13:20:27;;;;;;;;;;;;;;;9.05;100.00;100399.06;5039452;28;19924;-85
2022/02/11 13:22:58;;;;;;;;;;;;;;;8.59;100.00;100413.59;5011080;28;19932;-85
2022/02/11 13:25:28;;;;;;;;;;;;;;;8.89;100.00;100401.25;5039642;28;19924;-85
2022/02/11 13:27:56;;;;;;;;;;;;;;;9.15;100.00;100401.16;5070858;28;19929;-84
2022/02/11 13:30:28;;;;;;;;;;;;;;;9.15;100.00;100403.94;5076524;28;19928;-84
2022/02/11 13:33:00;;;;;;;;;;;;;;;9.20;100.00;100411.16;5059098;28;20371;-84
2022/02/11 13:35:40;;;;;;;;;;;;;;;9.11;100.00;100400.31;5072008;28;20294;-85
2022/02/11 13:38:07;;;;;;;;;;;;;;;8.75;100.00;100403.84;5093577;28;20026;-88
2022/02/11 13:40:36;;;;;;;;;;;;;;;8.91;100.00;100400.88;5043529;28;20279;-89
2022/02/11 13:43:05;;;;;;;;;;;;;;;9.01;100.00;100398.19;5059341;28;20403;-90
2022/02/11 13:46:06;;;;;;;;;;;;;;;8.93;100.00;100396.53;5075887;28;19928;-89
2022/02/11 13:48:49;;;;;;;;;;;;;;;9.26;100.00;100400.44;5033827;28;19963;-89
2022/02/11 13:51:23;;;;;;;;;;;;;;;9.41;100.00;100389.06;5027259;28;20393;-89
2022/02/11 13:53:57;;;;;;;;;;;;;;;9.23;100.00;100392.84;5043319;28;19978;-88
2022/02/11 13:56:31;;;;;;;;;;;;;;;9.35;100.00;100398.97;5072349;28;19964;-90
2022/02/11 13:59:02;;;;;;;;;;;;;;;8.99;100.00;100389.44;5039744;28;20119;-91
2022/02/11 14:01:30;;;;;;;;;;;;;;;9.01;100.00;100386.25;5037422;28;19924;-94
2022/02/11 14:04:00;;;;;;;;;;;;;;;9.06;100.00;100386.72;5047548;28;20378;-88
2022/02/11 14:06:34;;;;;;;;;;;;;;;9.21;100.00;100384.09;5074302;28;19931;-88
2022/02/11 14:09:25;;;;;;;;;;;;;;;9.23;100.00;100381.69;5043392;28;20263;-88
2022/02/11 14:11:56;;;;;;;;;;;;;;;9.27;100.00;100368.59;5041801;28;20386;-88
2022/02/11 14:14:25;;;;;;;;;;;;;;;9.39;100.00;100360.72;5051175;28;19924;-88
2022/02/11 14:16:56;;;;;;;;;;;;;;;9.43;100.00;100366.34;5092888;28;20023;-88
2022/02/11 14:19:27;;;;;;;;;;;;;;;9.36;100.00;100363.50;5039148;28;19995;-89
2022/02/11 14:21:56;;;;;;;;;;;;;;;9.33;100.00;100355.91;5044232;28;19930;-89
2022/02/11 14:24:25;;;;;;;;;;;;;;;9.38;100.00;100361.13;5035456;28;20328;-89
2022/02/11 14:26:52;;;;;;;;;;;;;;;9.49;100.00;100362.03;5070403;28;19932;-89
2022/02/11 14:29:20;;;;;;;;;;;;;;;9.47;100.00;100353.22;5055468;28;20299;-89
2022/02/11 14:31:48;;;;;;;;;;;;;;;9.48;100.00;100368.81;5039471;28;19932;-85
2022/02/11 14:34:15;;;;;;;;;;;;;;;9.12;100.00;100356.47;5042024;28;19974;-85
2022/02/11 14:36:43;;;;;;;;;;;;;;;8.90;100.00;100352.69;5065671;28;20445;-85
2022/02/11 14:39:16;;;;;;;;;;;;;;;8.94;100.00;100345.16;5063766;28;19928;-85
2022/02/11 14:41:48;;;;;;;;;;;;;;;8.99;100.00;100350.41;5059404;28;19925;-85
2022/02/11 14:44:16;;;;;;;;;;;;;;;9.02;100.00;100334.88;5073749;28;19973;-85
2022/02/11 14:46:44;;;;;;;;;;;;;;;9.12;100.00;100329.41;5078210;28;20019;-86
2022/02/11 14:49:11;;;;;;;;;;;;;;;9.18;100.00;100331.88;5091710;28;19947;-84
2022/02/11 14:51:39;;;;;;;;;;;;;;;8.95;100.00;100330.03;5062271;28;19924;-84
2022/02/11 14:54:10;;;;;;;;;;;;;;;8.99;100.00;100322.53;5046776;28;19924;-84
2022/02/11 14:56:38;;;;;;;;;;;;;;;9.10;100.00;100323.41;5078671;28;19928;-84
2022/02/11 14:59:08;;;;;;;;;;;;;;;8.98;100.00;100315.31;5097064;28;19928;-84
2022/02/11 15:01:39;;;;;;;;;;;;;;;8.66;100.00;100313.38;5069343;28;19938;-84
2022/02/11 15:04:06;;;;;;;;;;;;;;;8.80;100.00;100319.91;5058550;28;19925;-84
2022/02/11 15:06:34;;;;;;;;;;;;;;;9.10;100.00;100320.63;5026399;28;19929;-85
2022/02/11 15:09:01;;;;;;;;;;;;;;;9.14;100.00;100318.69;5077015;28;19924;-85
2022/02/11 15:11:29;;;;;;;;;;;;;;;9.00;100.00;100312.97;5028630;28;19946;-87
2022/02/11 15:13:56;;;;;;;;;;;;;;;8.84;100.00;100308.81;5066067;28;19931;-86
2022/02/11 15:16:23;;;;;;;;;;;;;;;8.90;100.00;100305.31;5073723;28;20364;-85
2022/02/11 15:18:50;;;;;;;;;;;;;;;8.61;100.00;100316.50;5058622;28;19946;-86
2022/02/11 15:21:19;;;;;;;;;;;;;;;8.74;100.00;100304.72;5094286;28;19947;-86
2022/02/11 15:23:46;;;;;;;;;;;;;;;8.74;100.00;100309.47;5011861;28;19928;-86
2022/02/11 15:26:16;;;;;;;;;;;;;;;8.88;100.00;100299.31;5061132;28;19985;-90
2022/02/11 15:28:43;;;;;;;;;;;;;;;8.58;100.00;100304.16;5051357;28;19932;-88
2022/02/11 15:31:12;;;;;;;;;;;;;;;8.48;100.00;100301.25;5041274;28;19928;-88
2022/02/11 15:33:41;;;;;;;;;;;;;;;8.35;100.00;100302.66;5061414;28;19931;-89
2022/02/11 15:36:09;;;;;;;;;;;;;;;8.25;100.00;100298.56;5061447;28;19985;-88
2022/02/11 15:38:36;;;;;;;;;;;;;;;8.04;100.00;100303.81;5068859;28;20633;-88
2022/02/11 15:41:03;;;;;;;;;;;;;;;7.96;100.00;100301.31;5041492;28;19924;-87
2022/02/11 15:43:31;;;;;;;;;;;;;;;8.09;100.00;100294.34;5042764;28;19924;-87
2022/02/11 15:46:00;;;;;;;;;;;;;;;8.02;100.00;100300.63;5036562;28;19968;-88
2022/02/11 15:48:33;;;;;;;;;;;;;;;8.10;100.00;100293.16;5075563;28;19924;-87
2022/02/11 15:51:04;;;;;;;;;;;;;;;7.82;100.00;100295.53;5068621;28;19924;-87
2022/02/11 15:53:33;;;;;;;;;;;;;;;7.87;100.00;100298.00;5056833;28;20405;-88
2022/02/11 15:56:00;;;;;;;;;;;;;;;7.65;100.00;100290.53;5065322;28;20306;-88
2022/02/11 15:58:27;;;;;;;;;;;;;;;7.80;100.00;100293.13;5040923;28;20340;-89
2022/02/11 16:00:54;;;;;;;;;;;;;;;8.09;100.00;100292.34;5057502;28;19924;-87
2022/02/11 16:03:24;;;;;;;;;;;;;;;8.12;100.00;100277.69;5054950;28;20023;-88
2022/02/11 16:05:54;;;;;;;;;;;;;;;7.57;100.00;100286.03;5023717;28;19925;-89
2022/02/11 16:08:22;;;;;;;;;;;;;;;8.02;100.00;100283.91;5040955;28;19997;-89
2022/02/11 16:10:49;;;;;;;;;;;;;;;7.94;100.00;100285.00;5045906;28;19924;-88
2022/02/11 16:13:18;;;;;;;;;;;;;;;8.25;100.00;100278.28;5024515;28;19924;-89
2022/02/11 16:15:45;;;;;;;;;;;;;;;7.93;100.00;100286.19;5024343;28;19931;-89
2022/02/11 16:18:16;;;;;;;;;;;;;;;8.02;100.00;100281.13;5040481;28;19952;-88
2022/02/11 16:20:45;;;;;;;;;;;;;;;7.77;100.00;100284.75;5043080;28;20298;-88
2022/02/11 16:23:13;;;;;;;;;;;;;;;8.00;100.00;100274.31;5041808;28;19924;-87
2022/02/11 16:25:40;;;;;;;;;;;;;;;7.95;100.00;100271.88;5054149;28;19928;-88
2022/02/11 16:28:08;;;;;;;;;;;;;;;7.68;100.00;100273.88;5077029;28;19943;-88
2022/02/11 16:30:36;;;;;;;;;;;;;;;7.33;100.00;100278.88;5076886;28;19924;-88
2022/02/11 16:33:04;;;;;;;;;;;;;;;7.21;100.00;100270.75;5058972;28;19925;-87
2022/02/11 16:35:34;;;;;;;;;;;;;;;7.09;100.00;100279.28;5060314;28;19939;-88
2022/02/11 16:38:02;;;;;;;;;;;;;;;7.04;100.00;100277.63;5043867;28;19924;-87
2022/02/11 16:40:30;;;;;;;;;;;;;;;7.03;100.00;100269.66;5060099;28;19930;-87
2022/02/11 16:42:58;;;;;;;;;;;;;;;6.98;100.00;100278.31;5060122;28;20295;-87